sensor_id;sensor_type;location;lat;lon;timestamp;P1;durP1;ratioP1;P2;durP2;ratioP2
50355;SDS011;36264;51.296;-0.602;2023-06-22T00:01:54;9.00;;;6.50;;
50355;SDS011;36264;51.296;-0.602;2023-06-22T00:04:19;9.10;;;6.35;;
50355;SDS011;36264;51.296;-0.602;2023-06-22T00:06:44;9.98;;;6.72;;
50355;SDS011;36264;51.296;-0.602;2023-06-22T00:09:10;10.68;;;6.82;;
50355;SDS011;36264;51.296;-0.602;2023-06-22T00:11:36;10.90;;;6.68;;
50355;SDS011;36264;51.296;-0.602;2023-06-22T00:14:02;9.30;;;6.68;;
50355;SDS011;36264;51.296;-0.602;2023-06-22T00:16:27;11.13;;;7.47;;
50355;SDS011;36264;51.296;-0.602;2023-06-22T00:18:53;12.65;;;7.18;;
50355;SDS011;36264;51.296;-0.602;2023-06-22T00:21:18;10.15;;;6.70;;
50355;SDS011;36264;51.296;-0.602;2023-06-22T00:23:45;9.95;;;6.63;;
50355;SDS011;36264;51.296;-0.602;2023-06-22T00:26:11;9.02;;;6.78;;
50355;SDS011;36264;51.296;-0.602;2023-06-22T00:28:36;8.63;;;6.00;;
50355;SDS011;36264;51.296;-0.602;2023-06-22T00:31:02;13.40;;;8.65;;
50355;SDS011;36264;51.296;-0.602;2023-06-22T00:33:27;10.27;;;6.80;;
50355;SDS011;36264;51.296;-0.602;2023-06-22T00:35:53;11.82;;;7.15;;
50355;SDS011;36264;51.296;-0.602;2023-06-22T00:38:19;9.20;;;6.28;;
50355;SDS011;36264;51.296;-0.602;2023-06-22T00:40:45;11.18;;;6.57;;
50355;SDS011;36264;51.296;-0.602;2023-06-22T00:43:11;9.32;;;6.32;;
50355;SDS011;36264;51.296;-0.602;2023-06-22T00:45:36;9.65;;;6.40;;
50355;SDS011;36264;51.296;-0.602;2023-06-22T00:48:02;8.60;;;5.90;;
50355;SDS011;36264;51.296;-0.602;2023-06-22T00:50:31;9.27;;;6.75;;
50355;SDS011;36264;51.296;-0.602;2023-06-22T00:52:59;8.88;;;5.97;;
50355;SDS011;36264;51.296;-0.602;2023-06-22T00:55:33;9.40;;;5.85;;
50355;SDS011;36264;51.296;-0.602;2023-06-22T00:58:02;7.63;;;5.68;;
50355;SDS011;36264;51.296;-0.602;2023-06-22T01:00:37;8.68;;;5.40;;
50355;SDS011;36264;51.296;-0.602;2023-06-22T01:03:03;8.77;;;5.68;;
50355;SDS011;36264;51.296;-0.602;2023-06-22T01:05:29;7.20;;;5.03;;
50355;SDS011;36264;51.296;-0.602;2023-06-22T01:08:00;7.82;;;5.50;;
50355;SDS011;36264;51.296;-0.602;2023-06-22T01:18:40;7.53;;;4.90;;
50355;SDS011;36264;51.296;-0.602;2023-06-22T01:21:07;6.88;;;5.03;;
50355;SDS011;36264;51.296;-0.602;2023-06-22T01:27:31;6.30;;;4.77;;
50355;SDS011;36264;51.296;-0.602;2023-06-22T01:29:29;7.03;;;4.55;;
50355;SDS011;36264;51.296;-0.602;2023-06-22T01:31:56;6.47;;;4.63;;
50355;SDS011;36264;51.296;-0.602;2023-06-22T01:34:22;6.70;;;4.43;;
50355;SDS011;36264;51.296;-0.602;2023-06-22T01:36:49;6.32;;;4.32;;
50355;SDS011;36264;51.296;-0.602;2023-06-22T01:39:16;6.57;;;4.28;;
50355;SDS011;36264;51.296;-0.602;2023-06-22T01:41:42;6.85;;;4.18;;
50355;SDS011;36264;51.296;-0.602;2023-06-22T01:44:08;6.53;;;4.28;;
50355;SDS011;36264;51.296;-0.602;2023-06-22T01:46:34;5.65;;;3.40;;
50355;SDS011;36264;51.296;-0.602;2023-06-22T01:49:02;6.28;;;4.28;;
50355;SDS011;36264;51.296;-0.602;2023-06-22T01:51:28;7.07;;;4.20;;
50355;SDS011;36264;51.296;-0.602;2023-06-22T01:53:54;6.95;;;4.82;;
50355;SDS011;36264;51.296;-0.602;2023-06-22T01:56:19;6.43;;;4.18;;
50355;SDS011;36264;51.296;-0.602;2023-06-22T01:58:48;5.75;;;4.05;;
50355;SDS011;36264;51.296;-0.602;2023-06-22T02:01:20;6.20;;;4.10;;
50355;SDS011;36264;51.296;-0.602;2023-06-22T02:06:55;8.82;;;5.57;;
50355;SDS011;36264;51.296;-0.602;2023-06-22T02:09:23;8.10;;;4.25;;
50355;SDS011;36264;51.296;-0.602;2023-06-22T02:11:54;6.35;;;3.92;;
50355;SDS011;36264;51.296;-0.602;2023-06-22T02:14:22;6.95;;;4.18;;
50355;SDS011;36264;51.296;-0.602;2023-06-22T02:16:49;6.78;;;4.00;;
50355;SDS011;36264;51.296;-0.602;2023-06-22T02:19:16;5.85;;;3.83;;
50355;SDS011;36264;51.296;-0.602;2023-06-22T02:21:43;5.95;;;3.67;;
50355;SDS011;36264;51.296;-0.602;2023-06-22T02:24:09;5.78;;;3.42;;
50355;SDS011;36264;51.296;-0.602;2023-06-22T02:26:35;8.30;;;5.25;;
50355;SDS011;36264;51.296;-0.602;2023-06-22T02:29:03;7.03;;;4.57;;
50355;SDS011;36264;51.296;-0.602;2023-06-22T02:31:28;5.43;;;3.80;;
50355;SDS011;36264;51.296;-0.602;2023-06-22T02:33:56;7.07;;;4.43;;
50355;SDS011;36264;51.296;-0.602;2023-06-22T02:36:23;6.38;;;4.20;;
50355;SDS011;36264;51.296;-0.602;2023-06-22T02:38:48;5.78;;;3.90;;
50355;SDS011;36264;51.296;-0.602;2023-06-22T02:41:14;6.00;;;4.13;;
50355;SDS011;36264;51.296;-0.602;2023-06-22T02:43:46;5.78;;;3.78;;
50355;SDS011;36264;51.296;-0.602;2023-06-22T02:46:12;5.70;;;3.88;;
50355;SDS011;36264;51.296;-0.602;2023-06-22T02:48:39;7.15;;;4.78;;
50355;SDS011;36264;51.296;-0.602;2023-06-22T02:51:05;6.13;;;3.75;;
50355;SDS011;36264;51.296;-0.602;2023-06-22T02:53:30;7.25;;;4.72;;
50355;SDS011;36264;51.296;-0.602;2023-06-22T02:55:55;5.82;;;4.03;;
50355;SDS011;36264;51.296;-0.602;2023-06-22T02:58:21;6.10;;;4.00;;
50355;SDS011;36264;51.296;-0.602;2023-06-22T03:00:46;6.03;;;3.65;;
50355;SDS011;36264;51.296;-0.602;2023-06-22T03:03:12;5.50;;;3.92;;
50355;SDS011;36264;51.296;-0.602;2023-06-22T03:05:37;5.88;;;4.20;;
50355;SDS011;36264;51.296;-0.602;2023-06-22T03:08:02;6.47;;;3.92;;
50355;SDS011;36264;51.296;-0.602;2023-06-22T03:10:28;5.53;;;3.55;;
50355;SDS011;36264;51.296;-0.602;2023-06-22T03:12:54;6.22;;;3.80;;
50355;SDS011;36264;51.296;-0.602;2023-06-22T03:15:19;5.63;;;3.88;;
50355;SDS011;36264;51.296;-0.602;2023-06-22T03:17:45;6.30;;;3.97;;
50355;SDS011;36264;51.296;-0.602;2023-06-22T03:20:11;7.50;;;4.80;;
50355;SDS011;36264;51.296;-0.602;2023-06-22T03:22:40;6.15;;;4.45;;
50355;SDS011;36264;51.296;-0.602;2023-06-22T03:25:09;5.78;;;4.10;;
50355;SDS011;36264;51.296;-0.602;2023-06-22T03:27:39;6.60;;;4.50;;
50355;SDS011;36264;51.296;-0.602;2023-06-22T03:30:05;7.03;;;4.30;;
50355;SDS011;36264;51.296;-0.602;2023-06-22T03:32:32;6.50;;;4.20;;
50355;SDS011;36264;51.296;-0.602;2023-06-22T03:34:57;5.88;;;3.92;;
50355;SDS011;36264;51.296;-0.602;2023-06-22T03:37:24;6.70;;;4.03;;
50355;SDS011;36264;51.296;-0.602;2023-06-22T03:39:50;7.05;;;4.30;;
50355;SDS011;36264;51.296;-0.602;2023-06-22T03:42:16;7.15;;;4.38;;
50355;SDS011;36264;51.296;-0.602;2023-06-22T03:44:41;6.03;;;3.75;;
50355;SDS011;36264;51.296;-0.602;2023-06-22T03:47:07;6.70;;;4.38;;
50355;SDS011;36264;51.296;-0.602;2023-06-22T03:49:32;5.47;;;3.60;;
50355;SDS011;36264;51.296;-0.602;2023-06-22T03:51:59;8.77;;;5.20;;
50355;SDS011;36264;51.296;-0.602;2023-06-22T03:54:26;6.82;;;4.10;;
50355;SDS011;36264;51.296;-0.602;2023-06-22T03:56:51;6.93;;;4.00;;
50355;SDS011;36264;51.296;-0.602;2023-06-22T03:59:16;5.80;;;3.75;;
50355;SDS011;36264;51.296;-0.602;2023-06-22T04:01:42;6.07;;;3.83;;
50355;SDS011;36264;51.296;-0.602;2023-06-22T04:04:08;6.30;;;3.90;;
50355;SDS011;36264;51.296;-0.602;2023-06-22T04:06:33;5.82;;;3.88;;
50355;SDS011;36264;51.296;-0.602;2023-06-22T04:08:59;5.75;;;3.47;;
50355;SDS011;36264;51.296;-0.602;2023-06-22T04:11:25;5.03;;;3.47;;
50355;SDS011;36264;51.296;-0.602;2023-06-22T04:13:51;4.40;;;3.00;;
50355;SDS011;36264;51.296;-0.602;2023-06-22T04:16:16;5.03;;;3.17;;
50355;SDS011;36264;51.296;-0.602;2023-06-22T04:18:42;5.13;;;3.17;;
50355;SDS011;36264;51.296;-0.602;2023-06-22T04:21:07;5.15;;;3.42;;
50355;SDS011;36264;51.296;-0.602;2023-06-22T04:23:33;5.15;;;3.17;;
50355;SDS011;36264;51.296;-0.602;2023-06-22T04:25:58;5.05;;;3.20;;
50355;SDS011;36264;51.296;-0.602;2023-06-22T04:28:24;5.60;;;3.40;;
50355;SDS011;36264;51.296;-0.602;2023-06-22T04:30:49;5.95;;;4.15;;
50355;SDS011;36264;51.296;-0.602;2023-06-22T04:33:16;4.68;;;3.30;;
50355;SDS011;36264;51.296;-0.602;2023-06-22T04:35:44;5.43;;;3.60;;
50355;SDS011;36264;51.296;-0.602;2023-06-22T04:38:11;5.53;;;3.28;;
50355;SDS011;36264;51.296;-0.602;2023-06-22T04:40:38;5.88;;;3.53;;
50355;SDS011;36264;51.296;-0.602;2023-06-22T04:43:04;5.03;;;3.45;;
50355;SDS011;36264;51.296;-0.602;2023-06-22T04:45:31;5.32;;;3.40;;
50355;SDS011;36264;51.296;-0.602;2023-06-22T04:48:03;5.80;;;3.70;;
50355;SDS011;36264;51.296;-0.602;2023-06-22T04:50:29;5.45;;;3.25;;
50355;SDS011;36264;51.296;-0.602;2023-06-22T04:52:54;4.32;;;3.13;;
50355;SDS011;36264;51.296;-0.602;2023-06-22T04:55:19;6.88;;;3.58;;
50355;SDS011;36264;51.296;-0.602;2023-06-22T04:57:45;4.53;;;2.97;;
50355;SDS011;36264;51.296;-0.602;2023-06-22T05:00:19;5.75;;;3.30;;
50355;SDS011;36264;51.296;-0.602;2023-06-22T05:02:47;5.22;;;3.55;;
50355;SDS011;36264;51.296;-0.602;2023-06-22T05:05:12;5.68;;;3.83;;
50355;SDS011;36264;51.296;-0.602;2023-06-22T05:07:39;4.85;;;3.40;;
50355;SDS011;36264;51.296;-0.602;2023-06-22T05:10:08;6.45;;;3.38;;
50355;SDS011;36264;51.296;-0.602;2023-06-22T05:12:35;7.25;;;4.55;;
50355;SDS011;36264;51.296;-0.602;2023-06-22T05:15:00;5.47;;;3.90;;
50355;SDS011;36264;51.296;-0.602;2023-06-22T05:17:26;7.18;;;4.05;;
50355;SDS011;36264;51.296;-0.602;2023-06-22T05:19:52;7.10;;;4.63;;
50355;SDS011;36264;51.296;-0.602;2023-06-22T05:22:17;7.65;;;4.70;;
50355;SDS011;36264;51.296;-0.602;2023-06-22T05:24:43;6.97;;;4.90;;
50355;SDS011;36264;51.296;-0.602;2023-06-22T05:27:09;6.13;;;3.83;;
50355;SDS011;36264;51.296;-0.602;2023-06-22T05:29:36;7.78;;;4.35;;
50355;SDS011;36264;51.296;-0.602;2023-06-22T05:32:02;8.50;;;4.95;;
50355;SDS011;36264;51.296;-0.602;2023-06-22T05:34:27;8.25;;;4.30;;
50355;SDS011;36264;51.296;-0.602;2023-06-22T05:36:53;7.75;;;4.10;;
50355;SDS011;36264;51.296;-0.602;2023-06-22T05:39:18;5.75;;;3.90;;
50355;SDS011;36264;51.296;-0.602;2023-06-22T05:41:46;5.63;;;3.67;;
50355;SDS011;36264;51.296;-0.602;2023-06-22T05:44:11;6.10;;;3.75;;
50355;SDS011;36264;51.296;-0.602;2023-06-22T05:46:37;5.85;;;3.67;;
50355;SDS011;36264;51.296;-0.602;2023-06-22T05:49:05;4.78;;;3.20;;
50355;SDS011;36264;51.296;-0.602;2023-06-22T05:51:31;4.93;;;3.10;;
50355;SDS011;36264;51.296;-0.602;2023-06-22T05:53:56;5.32;;;3.28;;
50355;SDS011;36264;51.296;-0.602;2023-06-22T05:56:21;4.40;;;3.00;;
50355;SDS011;36264;51.296;-0.602;2023-06-22T05:58:47;5.35;;;3.17;;
50355;SDS011;36264;51.296;-0.602;2023-06-22T06:01:12;5.72;;;3.25;;
50355;SDS011;36264;51.296;-0.602;2023-06-22T06:03:37;6.25;;;4.20;;
50355;SDS011;36264;51.296;-0.602;2023-06-22T06:06:06;4.72;;;3.22;;
50355;SDS011;36264;51.296;-0.602;2023-06-22T06:08:32;4.50;;;3.28;;
50355;SDS011;36264;51.296;-0.602;2023-06-22T06:10:57;5.93;;;3.70;;
50355;SDS011;36264;51.296;-0.602;2023-06-22T06:13:23;5.65;;;3.15;;
50355;SDS011;36264;51.296;-0.602;2023-06-22T06:15:48;6.47;;;3.22;;
50355;SDS011;36264;51.296;-0.602;2023-06-22T06:18:16;4.88;;;3.20;;
50355;SDS011;36264;51.296;-0.602;2023-06-22T06:20:41;7.50;;;3.78;;
50355;SDS011;36264;51.296;-0.602;2023-06-22T06:23:07;5.35;;;3.75;;
50355;SDS011;36264;51.296;-0.602;2023-06-22T06:25:32;5.65;;;3.72;;
50355;SDS011;36264;51.296;-0.602;2023-06-22T06:27:57;6.07;;;3.95;;
50355;SDS011;36264;51.296;-0.602;2023-06-22T06:30:23;9.60;;;5.28;;
50355;SDS011;36264;51.296;-0.602;2023-06-22T06:32:49;5.35;;;3.95;;
50355;SDS011;36264;51.296;-0.602;2023-06-22T06:35:14;8.15;;;4.72;;
50355;SDS011;36264;51.296;-0.602;2023-06-22T06:37:44;5.97;;;4.13;;
50355;SDS011;36264;51.296;-0.602;2023-06-22T06:40:11;6.53;;;3.50;;
50355;SDS011;36264;51.296;-0.602;2023-06-22T06:42:37;5.05;;;3.42;;
50355;SDS011;36264;51.296;-0.602;2023-06-22T06:45:05;5.28;;;3.50;;
50355;SDS011;36264;51.296;-0.602;2023-06-22T06:47:31;6.72;;;3.92;;
50355;SDS011;36264;51.296;-0.602;2023-06-22T06:49:57;6.30;;;4.22;;
50355;SDS011;36264;51.296;-0.602;2023-06-22T06:52:22;5.35;;;3.83;;
50355;SDS011;36264;51.296;-0.602;2023-06-22T06:54:48;6.68;;;3.35;;
50355;SDS011;36264;51.296;-0.602;2023-06-22T06:57:13;6.63;;;4.28;;
50355;SDS011;36264;51.296;-0.602;2023-06-22T06:59:40;6.90;;;4.03;;
50355;SDS011;36264;51.296;-0.602;2023-06-22T07:02:05;5.35;;;3.75;;
50355;SDS011;36264;51.296;-0.602;2023-06-22T07:04:31;4.68;;;3.20;;
50355;SDS011;36264;51.296;-0.602;2023-06-22T07:06:56;4.80;;;3.03;;
50355;SDS011;36264;51.296;-0.602;2023-06-22T07:09:21;4.38;;;3.08;;
50355;SDS011;36264;51.296;-0.602;2023-06-22T07:11:47;4.65;;;3.17;;
50355;SDS011;36264;51.296;-0.602;2023-06-22T07:14:12;5.22;;;3.20;;
50355;SDS011;36264;51.296;-0.602;2023-06-22T07:16:37;5.07;;;3.10;;
50355;SDS011;36264;51.296;-0.602;2023-06-22T07:19:03;7.97;;;4.00;;
50355;SDS011;36264;51.296;-0.602;2023-06-22T07:21:28;5.43;;;3.10;;
50355;SDS011;36264;51.296;-0.602;2023-06-22T07:23:53;5.32;;;3.45;;
50355;SDS011;36264;51.296;-0.602;2023-06-22T07:26:20;6.15;;;3.88;;
50355;SDS011;36264;51.296;-0.602;2023-06-22T07:28:45;6.13;;;3.60;;
50355;SDS011;36264;51.296;-0.602;2023-06-22T07:31:10;5.93;;;3.42;;
50355;SDS011;36264;51.296;-0.602;2023-06-22T07:33:36;6.18;;;3.90;;
50355;SDS011;36264;51.296;-0.602;2023-06-22T07:36:01;6.90;;;4.18;;
50355;SDS011;36264;51.296;-0.602;2023-06-22T07:38:32;5.68;;;3.67;;
50355;SDS011;36264;51.296;-0.602;2023-06-22T07:40:58;5.75;;;3.15;;
50355;SDS011;36264;51.296;-0.602;2023-06-22T07:43:23;5.13;;;3.15;;
50355;SDS011;36264;51.296;-0.602;2023-06-22T07:45:49;6.63;;;3.58;;
50355;SDS011;36264;51.296;-0.602;2023-06-22T07:48:21;4.93;;;3.35;;
50355;SDS011;36264;51.296;-0.602;2023-06-22T07:50:47;4.63;;;2.95;;
50355;SDS011;36264;51.296;-0.602;2023-06-22T07:53:12;4.72;;;3.20;;
50355;SDS011;36264;51.296;-0.602;2023-06-22T07:55:38;5.55;;;3.70;;
50355;SDS011;36264;51.296;-0.602;2023-06-22T07:58:03;9.45;;;3.83;;
50355;SDS011;36264;51.296;-0.602;2023-06-22T08:00:29;6.25;;;3.30;;
50355;SDS011;36264;51.296;-0.602;2023-06-22T08:02:54;4.38;;;2.97;;
50355;SDS011;36264;51.296;-0.602;2023-06-22T08:05:19;6.25;;;4.07;;
50355;SDS011;36264;51.296;-0.602;2023-06-22T08:07:45;5.35;;;3.70;;
50355;SDS011;36264;51.296;-0.602;2023-06-22T08:10:11;5.85;;;4.03;;
50355;SDS011;36264;51.296;-0.602;2023-06-22T08:12:37;5.53;;;3.55;;
50355;SDS011;36264;51.296;-0.602;2023-06-22T08:15:04;6.35;;;4.30;;
50355;SDS011;36264;51.296;-0.602;2023-06-22T08:17:30;8.82;;;3.63;;
50355;SDS011;36264;51.296;-0.602;2023-06-22T08:19:56;4.80;;;3.15;;
50355;SDS011;36264;51.296;-0.602;2023-06-22T08:22:21;5.00;;;3.40;;
50355;SDS011;36264;51.296;-0.602;2023-06-22T08:24:47;4.40;;;2.85;;
50355;SDS011;36264;51.296;-0.602;2023-06-22T08:27:13;4.95;;;3.00;;
50355;SDS011;36264;51.296;-0.602;2023-06-22T08:29:38;4.75;;;2.92;;
50355;SDS011;36264;51.296;-0.602;2023-06-22T08:32:04;4.28;;;2.72;;
50355;SDS011;36264;51.296;-0.602;2023-06-22T08:34:30;6.47;;;3.53;;
50355;SDS011;36264;51.296;-0.602;2023-06-22T08:36:55;6.55;;;3.28;;
50355;SDS011;36264;51.296;-0.602;2023-06-22T08:39:21;6.15;;;3.08;;
50355;SDS011;36264;51.296;-0.602;2023-06-22T08:41:47;6.75;;;3.08;;
50355;SDS011;36264;51.296;-0.602;2023-06-22T08:44:13;8.35;;;3.70;;
50355;SDS011;36264;51.296;-0.602;2023-06-22T08:46:38;5.22;;;3.03;;
50355;SDS011;36264;51.296;-0.602;2023-06-22T08:49:05;5.47;;;3.00;;
50355;SDS011;36264;51.296;-0.602;2023-06-22T08:51:31;4.55;;;2.88;;
50355;SDS011;36264;51.296;-0.602;2023-06-22T08:53:57;4.82;;;2.90;;
50355;SDS011;36264;51.296;-0.602;2023-06-22T08:56:22;3.58;;;2.55;;
50355;SDS011;36264;51.296;-0.602;2023-06-22T08:58:48;4.18;;;2.63;;
50355;SDS011;36264;51.296;-0.602;2023-06-22T09:01:13;4.13;;;2.60;;
50355;SDS011;36264;51.296;-0.602;2023-06-22T09:03:40;3.63;;;2.45;;
50355;SDS011;36264;51.296;-0.602;2023-06-22T09:06:05;4.80;;;2.92;;
50355;SDS011;36264;51.296;-0.602;2023-06-22T09:08:31;4.13;;;2.72;;
50355;SDS011;36264;51.296;-0.602;2023-06-22T09:10:57;5.57;;;3.13;;
50355;SDS011;36264;51.296;-0.602;2023-06-22T09:13:22;4.22;;;2.70;;
50355;SDS011;36264;51.296;-0.602;2023-06-22T09:15:47;4.32;;;2.67;;
50355;SDS011;36264;51.296;-0.602;2023-06-22T09:18:13;3.63;;;2.53;;
50355;SDS011;36264;51.296;-0.602;2023-06-22T09:20:39;4.90;;;2.97;;
50355;SDS011;36264;51.296;-0.602;2023-06-22T09:23:04;4.03;;;2.55;;
50355;SDS011;36264;51.296;-0.602;2023-06-22T09:25:30;4.68;;;2.67;;
50355;SDS011;36264;51.296;-0.602;2023-06-22T09:27:55;4.13;;;2.50;;
50355;SDS011;36264;51.296;-0.602;2023-06-22T09:30:21;4.45;;;2.83;;
50355;SDS011;36264;51.296;-0.602;2023-06-22T09:32:47;3.75;;;2.45;;
50355;SDS011;36264;51.296;-0.602;2023-06-22T09:35:12;5.22;;;2.75;;
50355;SDS011;36264;51.296;-0.602;2023-06-22T09:37:38;4.75;;;2.70;;
50355;SDS011;36264;51.296;-0.602;2023-06-22T09:40:05;4.35;;;2.70;;
50355;SDS011;36264;51.296;-0.602;2023-06-22T09:42:36;4.07;;;2.60;;
50355;SDS011;36264;51.296;-0.602;2023-06-22T09:45:01;4.07;;;3.03;;
50355;SDS011;36264;51.296;-0.602;2023-06-22T09:47:27;3.67;;;2.50;;
50355;SDS011;36264;51.296;-0.602;2023-06-22T09:49:54;4.20;;;2.40;;
50355;SDS011;36264;51.296;-0.602;2023-06-22T09:52:20;4.00;;;2.50;;
50355;SDS011;36264;51.296;-0.602;2023-06-22T09:54:46;4.28;;;2.60;;
50355;SDS011;36264;51.296;-0.602;2023-06-22T09:57:12;3.45;;;2.20;;
50355;SDS011;36264;51.296;-0.602;2023-06-22T09:59:37;3.08;;;2.17;;
50355;SDS011;36264;51.296;-0.602;2023-06-22T10:02:05;4.50;;;2.50;;
50355;SDS011;36264;51.296;-0.602;2023-06-22T10:04:31;5.57;;;2.67;;
50355;SDS011;36264;51.296;-0.602;2023-06-22T10:06:56;4.30;;;3.03;;
50355;SDS011;36264;51.296;-0.602;2023-06-22T10:09:22;4.25;;;2.90;;
50355;SDS011;36264;51.296;-0.602;2023-06-22T10:11:47;3.80;;;2.65;;
50355;SDS011;36264;51.296;-0.602;2023-06-22T10:14:12;5.75;;;2.70;;
50355;SDS011;36264;51.296;-0.602;2023-06-22T10:16:38;4.00;;;2.65;;
50355;SDS011;36264;51.296;-0.602;2023-06-22T10:19:03;5.32;;;3.17;;
50355;SDS011;36264;51.296;-0.602;2023-06-22T10:21:28;5.60;;;2.90;;
50355;SDS011;36264;51.296;-0.602;2023-06-22T10:23:54;9.52;;;3.20;;
50355;SDS011;36264;51.296;-0.602;2023-06-22T10:26:20;8.18;;;3.25;;
50355;SDS011;36264;51.296;-0.602;2023-06-22T10:28:46;4.30;;;2.80;;
50355;SDS011;36264;51.296;-0.602;2023-06-22T10:31:11;5.32;;;3.08;;
50355;SDS011;36264;51.296;-0.602;2023-06-22T10:33:36;4.25;;;2.70;;
50355;SDS011;36264;51.296;-0.602;2023-06-22T10:36:02;4.40;;;2.53;;
50355;SDS011;36264;51.296;-0.602;2023-06-22T10:38:27;4.05;;;2.70;;
50355;SDS011;36264;51.296;-0.602;2023-06-22T10:40:53;3.20;;;2.10;;
50355;SDS011;36264;51.296;-0.602;2023-06-22T10:43:18;5.07;;;2.60;;
50355;SDS011;36264;51.296;-0.602;2023-06-22T10:45:43;6.55;;;3.22;;
50355;SDS011;36264;51.296;-0.602;2023-06-22T10:48:10;4.68;;;2.63;;
50355;SDS011;36264;51.296;-0.602;2023-06-22T10:50:35;4.88;;;2.60;;
50355;SDS011;36264;51.296;-0.602;2023-06-22T10:53:01;5.45;;;2.70;;
50355;SDS011;36264;51.296;-0.602;2023-06-22T10:55:26;5.07;;;3.08;;
50355;SDS011;36264;51.296;-0.602;2023-06-22T10:57:51;3.38;;;2.20;;
50355;SDS011;36264;51.296;-0.602;2023-06-22T11:00:17;5.00;;;2.60;;
50355;SDS011;36264;51.296;-0.602;2023-06-22T11:02:43;6.03;;;2.80;;
50355;SDS011;36264;51.296;-0.602;2023-06-22T11:05:08;5.97;;;3.05;;
50355;SDS011;36264;51.296;-0.602;2023-06-22T11:07:34;6.22;;;2.95;;
50355;SDS011;36264;51.296;-0.602;2023-06-22T11:09:59;4.30;;;2.90;;
50355;SDS011;36264;51.296;-0.602;2023-06-22T11:12:25;5.20;;;3.17;;
50355;SDS011;36264;51.296;-0.602;2023-06-22T11:14:50;4.30;;;2.67;;
50355;SDS011;36264;51.296;-0.602;2023-06-22T11:17:16;4.53;;;2.60;;
50355;SDS011;36264;51.296;-0.602;2023-06-22T11:19:43;4.60;;;2.63;;
50355;SDS011;36264;51.296;-0.602;2023-06-22T11:22:09;4.63;;;2.80;;
50355;SDS011;36264;51.296;-0.602;2023-06-22T11:24:35;4.18;;;2.50;;
50355;SDS011;36264;51.296;-0.602;2023-06-22T11:27:00;4.20;;;2.58;;
50355;SDS011;36264;51.296;-0.602;2023-06-22T11:29:25;4.70;;;2.45;;
50355;SDS011;36264;51.296;-0.602;2023-06-22T11:31:51;5.55;;;2.97;;
50355;SDS011;36264;51.296;-0.602;2023-06-22T11:34:16;4.32;;;2.80;;
50355;SDS011;36264;51.296;-0.602;2023-06-22T11:36:42;4.38;;;2.80;;
50355;SDS011;36264;51.296;-0.602;2023-06-22T11:39:09;3.83;;;2.67;;
50355;SDS011;36264;51.296;-0.602;2023-06-22T11:41:34;4.68;;;2.58;;
50355;SDS011;36264;51.296;-0.602;2023-06-22T11:44:00;4.35;;;2.45;;
50355;SDS011;36264;51.296;-0.602;2023-06-22T11:46:25;3.80;;;2.70;;
50355;SDS011;36264;51.296;-0.602;2023-06-22T11:48:51;4.50;;;2.90;;
50355;SDS011;36264;51.296;-0.602;2023-06-22T11:51:16;4.15;;;2.35;;
50355;SDS011;36264;51.296;-0.602;2023-06-22T11:53:42;5.13;;;2.83;;
50355;SDS011;36264;51.296;-0.602;2023-06-22T11:56:07;5.05;;;2.80;;
50355;SDS011;36264;51.296;-0.602;2023-06-22T11:58:32;6.00;;;2.78;;
50355;SDS011;36264;51.296;-0.602;2023-06-22T12:00:58;3.80;;;2.47;;
50355;SDS011;36264;51.296;-0.602;2023-06-22T12:03:23;4.28;;;2.60;;
50355;SDS011;36264;51.296;-0.602;2023-06-22T12:05:49;4.95;;;3.20;;
50355;SDS011;36264;51.296;-0.602;2023-06-22T12:08:15;5.63;;;3.25;;
50355;SDS011;36264;51.296;-0.602;2023-06-22T12:10:40;3.83;;;2.47;;
50355;SDS011;36264;51.296;-0.602;2023-06-22T12:13:06;5.22;;;2.88;;
50355;SDS011;36264;51.296;-0.602;2023-06-22T12:15:31;4.65;;;3.00;;
50355;SDS011;36264;51.296;-0.602;2023-06-22T12:17:56;5.88;;;2.90;;
50355;SDS011;36264;51.296;-0.602;2023-06-22T12:20:22;3.40;;;2.35;;
50355;SDS011;36264;51.296;-0.602;2023-06-22T12:22:47;4.22;;;2.70;;
50355;SDS011;36264;51.296;-0.602;2023-06-22T12:25:13;4.55;;;3.00;;
50355;SDS011;36264;51.296;-0.602;2023-06-22T12:27:38;5.35;;;2.85;;
50355;SDS011;36264;51.296;-0.602;2023-06-22T12:30:04;5.50;;;2.60;;
50355;SDS011;36264;51.296;-0.602;2023-06-22T12:32:30;6.25;;;2.45;;
50355;SDS011;36264;51.296;-0.602;2023-06-22T12:34:55;3.88;;;2.40;;
50355;SDS011;36264;51.296;-0.602;2023-06-22T12:37:21;5.03;;;2.72;;
50355;SDS011;36264;51.296;-0.602;2023-06-22T12:39:46;4.00;;;2.30;;
50355;SDS011;36264;51.296;-0.602;2023-06-22T12:42:12;3.70;;;2.42;;
50355;SDS011;36264;51.296;-0.602;2023-06-22T12:44:38;4.85;;;2.38;;
50355;SDS011;36264;51.296;-0.602;2023-06-22T12:47:04;4.38;;;2.85;;
50355;SDS011;36264;51.296;-0.602;2023-06-22T12:49:30;4.03;;;2.42;;
50355;SDS011;36264;51.296;-0.602;2023-06-22T12:51:55;3.97;;;2.72;;
50355;SDS011;36264;51.296;-0.602;2023-06-22T12:54:20;4.18;;;2.47;;
50355;SDS011;36264;51.296;-0.602;2023-06-22T12:56:46;5.32;;;2.55;;
50355;SDS011;36264;51.296;-0.602;2023-06-22T12:59:12;6.15;;;2.70;;
50355;SDS011;36264;51.296;-0.602;2023-06-22T13:01:37;3.80;;;2.58;;
50355;SDS011;36264;51.296;-0.602;2023-06-22T13:04:03;4.75;;;2.80;;
50355;SDS011;36264;51.296;-0.602;2023-06-22T13:06:28;3.88;;;2.42;;
50355;SDS011;36264;51.296;-0.602;2023-06-22T13:08:54;4.35;;;2.53;;
50355;SDS011;36264;51.296;-0.602;2023-06-22T13:11:19;4.07;;;2.50;;
50355;SDS011;36264;51.296;-0.602;2023-06-22T13:13:45;4.10;;;2.47;;
50355;SDS011;36264;51.296;-0.602;2023-06-22T13:16:11;3.65;;;2.40;;
50355;SDS011;36264;51.296;-0.602;2023-06-22T13:18:36;6.05;;;2.67;;
50355;SDS011;36264;51.296;-0.602;2023-06-22T13:21:02;5.07;;;2.80;;
50355;SDS011;36264;51.296;-0.602;2023-06-22T13:23:28;5.50;;;2.63;;
50355;SDS011;36264;51.296;-0.602;2023-06-22T13:25:53;3.90;;;2.63;;
50355;SDS011;36264;51.296;-0.602;2023-06-22T13:28:19;4.75;;;2.88;;
50355;SDS011;36264;51.296;-0.602;2023-06-22T13:30:45;3.78;;;2.35;;
50355;SDS011;36264;51.296;-0.602;2023-06-22T13:33:12;4.88;;;2.47;;
50355;SDS011;36264;51.296;-0.602;2023-06-22T13:35:38;4.93;;;2.40;;
50355;SDS011;36264;51.296;-0.602;2023-06-22T13:38:03;5.20;;;3.13;;
50355;SDS011;36264;51.296;-0.602;2023-06-22T13:40:29;5.00;;;2.72;;
50355;SDS011;36264;51.296;-0.602;2023-06-22T13:42:55;4.57;;;2.75;;
50355;SDS011;36264;51.296;-0.602;2023-06-22T13:45:20;4.20;;;2.63;;
50355;SDS011;36264;51.296;-0.602;2023-06-22T13:47:46;6.30;;;2.90;;
50355;SDS011;36264;51.296;-0.602;2023-06-22T13:50:12;4.65;;;2.55;;
50355;SDS011;36264;51.296;-0.602;2023-06-22T13:52:38;3.90;;;2.40;;
50355;SDS011;36264;51.296;-0.602;2023-06-22T13:55:03;4.20;;;2.58;;
50355;SDS011;36264;51.296;-0.602;2023-06-22T13:57:30;5.20;;;2.45;;
50355;SDS011;36264;51.296;-0.602;2023-06-22T13:59:55;3.70;;;2.42;;
50355;SDS011;36264;51.296;-0.602;2023-06-22T14:02:20;4.43;;;2.40;;
50355;SDS011;36264;51.296;-0.602;2023-06-22T14:04:46;3.55;;;2.30;;
50355;SDS011;36264;51.296;-0.602;2023-06-22T14:07:11;3.38;;;2.28;;
50355;SDS011;36264;51.296;-0.602;2023-06-22T14:09:36;3.92;;;2.30;;
50355;SDS011;36264;51.296;-0.602;2023-06-22T14:12:05;4.55;;;2.20;;
50355;SDS011;36264;51.296;-0.602;2023-06-22T14:14:32;3.95;;;2.30;;
50355;SDS011;36264;51.296;-0.602;2023-06-22T14:16:58;4.13;;;2.63;;
50355;SDS011;36264;51.296;-0.602;2023-06-22T14:19:23;3.80;;;2.50;;
50355;SDS011;36264;51.296;-0.602;2023-06-22T14:21:49;5.47;;;2.70;;
50355;SDS011;36264;51.296;-0.602;2023-06-22T14:24:14;4.45;;;2.60;;
50355;SDS011;36264;51.296;-0.602;2023-06-22T14:26:40;3.50;;;2.78;;
50355;SDS011;36264;51.296;-0.602;2023-06-22T14:29:05;3.95;;;3.00;;
50355;SDS011;36264;51.296;-0.602;2023-06-22T14:31:30;4.30;;;3.50;;
50355;SDS011;36264;51.296;-0.602;2023-06-22T14:33:56;3.93;;;3.40;;
50355;SDS011;36264;51.296;-0.602;2023-06-22T14:36:21;4.10;;;3.70;;
50355;SDS011;36264;51.296;-0.602;2023-06-22T14:38:47;4.80;;;4.30;;
50355;SDS011;36264;51.296;-0.602;2023-06-22T14:41:12;4.90;;;4.40;;